createdAt,value
2017-11-30T00:00:06.195Z,3.6
2017-11-30T00:01:14.731Z,3.57
2017-11-30T00:02:23.537Z,3.56
2017-11-30T00:03:32.614Z,3.6
2017-11-30T00:04:41.692Z,3.58
2017-11-30T00:05:50.230Z,3.53
2017-11-30T00:06:59.039Z,3.69
2017-11-30T00:08:07.912Z,3.67
2017-11-30T00:09:16.991Z,3.67
2017-11-30T00:10:25.527Z,3.63
2017-11-30T00:11:34.613Z,3.61
2017-11-30T00:12:43.960Z,3.61
2017-11-30T00:13:52.768Z,3.69
2017-11-30T00:15:01.301Z,3.67
2017-11-30T00:16:09.836Z,3.69
2017-11-30T00:17:18.649Z,3.72
2017-11-30T00:18:27.728Z,3.66
2017-11-30T00:19:36.537Z,3.63
2017-11-30T00:20:45.354Z,3.72
2017-11-30T00:21:54.161Z,3.79
2017-11-30T00:23:03.969Z,3.81
2017-11-30T00:24:12.775Z,3.74
2017-11-30T00:25:22.131Z,3.75
2017-11-30T00:26:31.215Z,3.72
2017-11-30T00:27:40.292Z,3.78
2017-11-30T00:28:49.096Z,3.79
2017-11-30T00:29:58.628Z,3.81
2017-11-30T00:31:07.443Z,3.75
2017-11-30T00:32:16.254Z,3.86
2017-11-30T00:33:25.339Z,3.75
2017-11-30T00:34:34.147Z,3.84
2017-11-30T00:35:42.677Z,3.84
2017-11-30T00:36:51.211Z,3.85
2017-11-30T00:38:00.014Z,3.82
2017-11-30T00:39:08.820Z,3.82
2017-11-30T00:40:17.357Z,3.85
2017-11-30T00:41:25.891Z,3.82
2017-11-30T00:42:34.701Z,3.85
2017-11-30T00:43:43.786Z,3.84
2017-11-30T00:44:52.321Z,3.82
2017-11-30T00:46:00.861Z,3.85
2017-11-30T00:47:09.944Z,3.86
2017-11-30T00:48:18.758Z,3.89
2017-11-30T00:49:27.296Z,3.85
2017-11-30T00:50:35.826Z,3.93
2017-11-30T00:51:44.631Z,3.93
2017-11-30T00:52:53.439Z,3.82
2017-11-30T00:54:02.243Z,3.89
2017-11-30T00:55:10.776Z,3.92
2017-11-30T00:56:19.851Z,3.86
2017-11-30T00:57:28.386Z,3.86
2017-11-30T00:58:37.465Z,3.92
2017-11-30T00:59:45.999Z,3.9
2017-11-30T01:00:54.805Z,3.86
2017-11-30T01:02:03.625Z,3.9
2017-11-30T01:03:12.158Z,3.93
2017-11-30T01:04:20.964Z,3.97
2017-11-30T01:05:29.774Z,3.9
2017-11-30T01:06:38.584Z,3.92
2017-11-30T01:07:47.109Z,3.9
2017-11-30T01:08:56.188Z,3.89
2017-11-30T01:10:04.721Z,3.9
2017-11-30T01:11:13.255Z,3.92
2017-11-30T01:12:22.335Z,3.94
2017-11-30T01:13:31.419Z,3.9
2017-11-30T01:14:39.951Z,3.93
2017-11-30T01:15:48.759Z,3.92
2017-11-30T01:16:57.570Z,3.86
2017-11-30T01:18:06.645Z,3.99
2017-11-30T01:19:15.451Z,3.99
2017-11-30T01:20:24.253Z,3.96
2017-11-30T01:21:33.060Z,3.99
2017-11-30T01:22:41.869Z,3.97
2017-11-30T01:23:50.948Z,4.03
2017-11-30T01:24:59.755Z,4.03
2017-11-30T01:26:08.563Z,4
2017-11-30T01:27:17.099Z,4
2017-11-30T01:28:25.636Z,4.03
2017-11-30T01:29:34.172Z,4.03
2017-11-30T01:30:43.253Z,3.99
2017-11-30T01:31:52.059Z,4.08
2017-11-30T01:33:00.872Z,3.99
2017-11-30T01:34:09.404Z,4
2017-11-30T01:35:17.938Z,4.04
2017-11-30T01:36:26.744Z,4
2017-11-30T01:37:35.550Z,4.02
2017-11-30T01:38:44.360Z,4.03
2017-11-30T01:39:53.439Z,3.96
2017-11-30T01:41:01.971Z,3.96
2017-11-30T01:42:10.788Z,4.07
2017-11-30T01:43:19.596Z,4.08
2017-11-30T01:44:28.405Z,4.1
2017-11-30T01:45:37.496Z,4.07
2017-11-30T01:46:46.303Z,4.1
2017-11-30T01:47:55.110Z,4.08
2017-11-30T01:49:03.648Z,4.1
2017-11-30T01:50:12.195Z,4.12
2017-11-30T01:51:21.272Z,4.12
2017-11-30T01:52:29.806Z,4.12
2017-11-30T01:53:38.346Z,4.18
2017-11-30T01:54:47.152Z,4.18
2017-11-30T01:55:56.521Z,4.12
2017-11-30T01:57:05.328Z,4.15
2017-11-30T01:58:13.868Z,4.17
2017-11-30T01:59:22.961Z,4.14
2017-11-30T02:00:31.766Z,4.32
2017-11-30T02:01:40.573Z,4.29
2017-11-30T02:02:49.110Z,4.18
2017-11-30T02:03:57.918Z,4.18
2017-11-30T02:05:06.722Z,4.29
2017-11-30T02:06:15.526Z,4.28
2017-11-30T02:07:24.334Z,4.26
2017-11-30T02:08:32.869Z,4.3
2017-11-30T02:09:41.673Z,4.3
2017-11-30T02:10:50.477Z,4.3
2017-11-30T02:11:59.827Z,4.28
2017-11-30T02:13:08.637Z,4.2
2017-11-30T02:14:17.171Z,4.3
2017-11-30T02:15:26.258Z,4.21
2017-11-30T02:16:34.793Z,4.15
2017-11-30T02:17:43.598Z,4.17
2017-11-30T02:18:52.678Z,4.15
2017-11-30T02:20:01.209Z,4.18
2017-11-30T02:21:10.312Z,4.21
2017-11-30T02:22:19.110Z,4.24
2017-11-30T02:23:28.228Z,4.24
2017-11-30T02:24:36.762Z,4.17
2017-11-30T02:25:45.297Z,4.18
2017-11-30T02:26:54.380Z,4.2
2017-11-30T02:28:02.915Z,4.17
2017-11-30T02:29:11.721Z,4.17
2017-11-30T02:30:20.254Z,4.12
2017-11-30T02:31:29.328Z,4.22
2017-11-30T02:32:37.864Z,4.24
2017-11-30T02:33:46.674Z,4.26
2017-11-30T02:34:55.484Z,4.17
2017-11-30T02:36:04.290Z,4.17
2017-11-30T02:37:13.106Z,4.18
2017-11-30T02:38:21.918Z,4.32
2017-11-30T02:39:30.459Z,4.26
2017-11-30T02:40:39.270Z,4.3
2017-11-30T02:41:47.807Z,4.24
2017-11-30T02:42:56.615Z,4.26
2017-11-30T02:44:05.708Z,4.33
2017-11-30T02:45:14.522Z,4.28
2017-11-30T02:46:23.059Z,4.33
2017-11-30T02:47:31.592Z,4.2
2017-11-30T02:48:40.126Z,4.29
2017-11-30T02:49:48.667Z,4.29
2017-11-30T02:50:57.476Z,4.36
2017-11-30T02:52:06.303Z,4.33
2017-11-30T02:53:15.103Z,4.36
2017-11-30T02:54:24.458Z,4.3
2017-11-30T02:55:33.260Z,4.33
2017-11-30T02:56:42.343Z,4.33
2017-11-30T02:57:51.151Z,4.39
2017-11-30T02:58:59.956Z,4.38
2017-11-30T03:00:08.495Z,4.4
2017-11-30T03:01:17.860Z,4.39
2017-11-30T03:02:26.665Z,4.39
2017-11-30T03:03:35.202Z,4.44
2017-11-30T03:04:44.012Z,4.44
2017-11-30T03:05:52.547Z,4.39
2017-11-30T03:07:01.082Z,4.39
2017-11-30T03:08:09.621Z,4.39
2017-11-30T03:09:18.973Z,4.4
2017-11-30T03:10:27.507Z,4.4
2017-11-30T03:11:36.041Z,4.35
2017-11-30T03:12:44.859Z,4.4
2017-11-30T03:13:53.941Z,4.42
2017-11-30T03:15:02.743Z,4.47
2017-11-30T03:16:11.549Z,4.46
2017-11-30T03:17:20.084Z,4.42
2017-11-30T03:18:28.619Z,4.47
2017-11-30T03:19:37.427Z,4.47
2017-11-30T03:20:46.508Z,4.44
2017-11-30T03:21:55.039Z,4.42
2017-11-30T03:23:03.840Z,4.47
2017-11-30T03:24:13.583Z,4.46
2017-11-30T03:25:22.663Z,4.48
2017-11-30T03:26:31.197Z,4.48
2017-11-30T03:27:39.733Z,4.48
2017-11-30T03:28:48.811Z,4.47
2017-11-30T03:29:57.637Z,4.47
2017-11-30T03:31:06.483Z,4.51
2017-11-30T03:32:15.298Z,4.48
2017-11-30T03:33:23.843Z,4.47
2017-11-30T03:34:32.378Z,4.42
2017-11-30T03:35:41.181Z,4.47
2017-11-30T03:36:49.991Z,4.48
2017-11-30T03:37:58.526Z,4.39
2017-11-30T03:39:07.058Z,4.44
2017-11-30T03:40:15.592Z,4.44
2017-11-30T03:41:24.398Z,4.46
2017-11-30T03:42:33.210Z,4.4
2017-11-30T03:43:42.286Z,4.46
2017-11-30T03:44:51.092Z,4.42
2017-11-30T03:45:59.627Z,4.33
2017-11-30T03:47:08.436Z,4.42
2017-11-30T03:48:17.288Z,4.44
2017-11-30T03:49:25.823Z,4.38
2017-11-30T03:50:34.360Z,4.42
2017-11-30T03:51:43.171Z,4.39
2017-11-30T03:52:51.980Z,4.39
2017-11-30T03:54:00.513Z,4.39
2017-11-30T03:55:09.047Z,4.39
2017-11-30T03:56:17.587Z,4.36
2017-11-30T03:57:26.400Z,4.4
2017-11-30T03:58:35.195Z,4.39
2017-11-30T03:59:43.729Z,4.39
2017-11-30T04:00:52.809Z,4.4
2017-11-30T04:02:01.344Z,4.39
2017-11-30T04:03:10.152Z,4.39
2017-11-30T04:04:19.233Z,4.4
2017-11-30T04:05:28.040Z,4.4
2017-11-30T04:06:36.849Z,4.4
2017-11-30T04:07:45.655Z,4.39
2017-11-30T04:08:54.191Z,4.36
2017-11-30T04:10:02.730Z,4.4
2017-11-30T04:11:11.262Z,4.44
2017-11-30T04:12:19.799Z,4.44
2017-11-30T04:13:28.332Z,4.44
2017-11-30T04:14:37.141Z,4.4
2017-11-30T04:15:45.674Z,4.42
2017-11-30T04:16:54.211Z,4.44
2017-11-30T04:18:02.749Z,4.47
2017-11-30T04:19:11.551Z,4.48
2017-11-30T04:20:20.358Z,4.47
2017-11-30T04:21:29.165Z,4.5
2017-11-30T04:22:37.977Z,4.48
2017-11-30T04:23:46.512Z,4.46
2017-11-30T04:24:55.318Z,4.47
2017-11-30T04:26:04.128Z,4.44
2017-11-30T04:27:13.214Z,4.48
2017-11-30T04:28:22.298Z,4.5
2017-11-30T04:29:31.103Z,4.51
2017-11-30T04:30:39.907Z,4.51
2017-11-30T04:31:48.715Z,4.58
2017-11-30T04:32:57.255Z,4.58
2017-11-30T04:34:05.792Z,4.53
2017-11-30T04:35:15.141Z,4.51
2017-11-30T04:36:23.675Z,4.53
2017-11-30T04:37:32.211Z,4.54
2017-11-30T04:38:41.034Z,4.53
2017-11-30T04:39:49.582Z,4.53
2017-11-30T04:40:58.119Z,4.57
2017-11-30T04:42:06.925Z,4.56
2017-11-30T04:43:15.737Z,4.6
2017-11-30T04:44:24.543Z,4.65
2017-11-30T04:45:33.348Z,4.68
2017-11-30T04:46:42.154Z,4.65
2017-11-30T04:47:50.718Z,4.68
2017-11-30T04:48:59.523Z,4.61
2017-11-30T04:50:08.061Z,4.61
2017-11-30T04:51:16.867Z,4.6
2017-11-30T04:52:25.668Z,4.61
2017-11-30T04:53:34.753Z,4.64
2017-11-30T04:54:43.560Z,4.64
2017-11-30T04:55:52.665Z,4.65
2017-11-30T04:57:01.747Z,4.68
2017-11-30T04:58:10.280Z,4.65
2017-11-30T04:59:19.085Z,4.61
2017-11-30T05:00:28.171Z,4.66
2017-11-30T05:01:36.988Z,4.65
2017-11-30T05:02:46.625Z,4.61
2017-11-30T05:03:55.979Z,4.66
2017-11-30T05:05:04.791Z,4.65
2017-11-30T05:06:13.867Z,4.64
2017-11-30T05:07:22.695Z,4.64
2017-11-30T05:08:31.503Z,4.64
2017-11-30T05:09:40.580Z,4.65
2017-11-30T05:10:49.115Z,4.61
2017-11-30T05:11:57.926Z,4.65
2017-11-30T05:13:06.462Z,4.76
2017-11-30T05:14:15.273Z,4.66
2017-11-30T05:15:24.079Z,4.65
2017-11-30T05:16:32.671Z,4.66
2017-11-30T05:17:41.477Z,4.58
2017-11-30T05:18:50.013Z,4.74
2017-11-30T05:19:58.820Z,4.68
2017-11-30T05:21:07.899Z,4.66
2017-11-30T05:22:16.705Z,4.74
2017-11-30T05:23:25.782Z,4.68
2017-11-30T05:24:34.586Z,4.61
2017-11-30T05:25:43.396Z,4.71
2017-11-30T05:26:52.497Z,4.61
2017-11-30T05:28:01.307Z,4.68
2017-11-30T05:29:10.387Z,4.66
2017-11-30T05:30:19.194Z,4.65
2017-11-30T05:31:27.731Z,4.64
2017-11-30T05:32:36.536Z,4.64
2017-11-30T05:33:45.342Z,4.66
2017-11-30T05:34:54.158Z,4.6
2017-11-30T05:36:03.248Z,4.57
2017-11-30T05:37:12.325Z,4.54
2017-11-30T05:38:21.130Z,4.56
2017-11-30T05:39:29.939Z,4.6
2017-11-30T05:40:38.474Z,4.61
2017-11-30T05:41:47.006Z,4.64
2017-11-30T05:42:56.087Z,4.61
2017-11-30T05:44:04.621Z,4.58
2017-11-30T05:45:13.425Z,4.48
2017-11-30T05:46:22.503Z,4.48
2017-11-30T05:47:31.036Z,4.51
2017-11-30T05:48:39.570Z,4.54
2017-11-30T05:49:48.384Z,4.5
2017-11-30T05:50:56.919Z,4.51
2017-11-30T05:52:05.751Z,4.5
2017-11-30T05:53:14.554Z,4.51
2017-11-30T05:54:23.369Z,4.58
2017-11-30T05:55:32.448Z,4.5
2017-11-30T05:56:41.254Z,4.54
2017-11-30T05:57:49.791Z,4.56
2017-11-30T05:58:59.148Z,4.51
2017-11-30T06:00:07.954Z,4.46
2017-11-30T06:01:16.761Z,4.47
2017-11-30T06:02:25.848Z,4.44
2017-11-30T06:03:34.380Z,4.39
2017-11-30T06:04:43.190Z,4.42
2017-11-30T06:05:52.266Z,4.39
2017-11-30T06:07:00.804Z,4.38
2017-11-30T06:08:09.346Z,4.36
2017-11-30T06:09:18.151Z,4.36
2017-11-30T06:10:26.959Z,4.4
2017-11-30T06:11:35.764Z,4.33
2017-11-30T06:12:44.297Z,4.35
2017-11-30T06:13:53.101Z,4.29
2017-11-30T06:15:01.905Z,4.33
2017-11-30T06:16:10.992Z,4.15
2017-11-30T06:17:19.837Z,4.14
2017-11-30T06:18:31.222Z,4.15
2017-11-30T06:19:40.031Z,4.22
2017-11-30T06:20:48.564Z,4.15
2017-11-30T06:21:57.375Z,4.14
2017-11-30T06:23:06.462Z,4.24
2017-11-30T06:24:14.998Z,4.14
2017-11-30T06:25:23.530Z,4.26
2017-11-30T06:26:32.074Z,4.17
2017-11-30T06:27:41.150Z,4.15
2017-11-30T06:28:49.683Z,4.15
2017-11-30T06:29:58.220Z,4.14
2017-11-30T06:31:07.298Z,4.14
2017-11-30T06:32:15.832Z,4.26
2017-11-30T06:33:24.366Z,4.17
2017-11-30T06:34:32.901Z,4.12
2017-11-30T06:35:41.707Z,4.15
2017-11-30T06:36:50.241Z,4.21
2017-11-30T06:37:59.319Z,4.12
2017-11-30T06:39:07.855Z,4.17
2017-11-30T06:40:16.386Z,4.15
2017-11-30T06:41:25.193Z,4.12
2017-11-30T06:42:33.728Z,4.15
2017-11-30T06:43:42.536Z,4.17
2017-11-30T06:44:51.346Z,4.14
2017-11-30T06:46:00.433Z,4.2
2017-11-30T06:47:09.240Z,4.17
2017-11-30T06:48:17.778Z,4.11
2017-11-30T06:49:26.806Z,4.2
2017-11-30T06:50:35.344Z,4.17
2017-11-30T06:51:44.150Z,4.14
2017-11-30T06:52:53.228Z,4.12
2017-11-30T06:54:02.036Z,4.22
2017-11-30T06:55:10.847Z,4.18
2017-11-30T06:56:19.939Z,4.12
2017-11-30T06:57:28.743Z,4.17
2017-11-30T06:58:37.557Z,4.17
2017-11-30T06:59:46.091Z,4.18
2017-11-30T07:00:54.896Z,4.18
2017-11-30T07:02:03.705Z,4.29
2017-11-30T07:03:12.241Z,4.33
2017-11-30T07:04:21.378Z,4.32
2017-11-30T07:05:30.193Z,4.32
2017-11-30T07:06:39.552Z,4.32
2017-11-30T07:07:48.093Z,4.35
2017-11-30T07:08:57.189Z,4.33
2017-11-30T07:10:05.724Z,4.33
2017-11-30T07:11:14.532Z,4.39
2017-11-30T07:12:23.068Z,4.39
2017-11-30T07:13:31.603Z,4.39
2017-11-30T07:14:40.411Z,4.38
2017-11-30T07:15:48.948Z,4.44
2017-11-30T07:16:57.752Z,4.48
2017-11-30T07:18:06.559Z,4.48
2017-11-30T07:19:15.364Z,4.48
2017-11-30T07:20:24.446Z,4.51
2017-11-30T07:21:32.978Z,4.44
2017-11-30T07:22:41.512Z,4.48
2017-11-30T07:23:50.051Z,4.51
2017-11-30T07:24:59.018Z,4.57
2017-11-30T07:26:07.846Z,4.51
2017-11-30T07:27:17.036Z,4.47
2017-11-30T07:28:25.583Z,4.51
2017-11-30T07:29:34.668Z,4.57
2017-11-30T07:30:43.524Z,4.6
2017-11-30T07:31:52.058Z,4.68
2017-11-30T07:33:00.867Z,4.6
2017-11-30T07:34:09.959Z,4.58
2017-11-30T07:35:18.767Z,4.61
2017-11-30T07:36:27.575Z,4.64
2017-11-30T07:37:36.650Z,4.61
2017-11-30T07:38:45.189Z,4.6
2017-11-30T07:39:54.273Z,4.64
2017-11-30T07:41:02.809Z,4.61
2017-11-30T07:42:11.345Z,4.68
2017-11-30T07:43:20.205Z,4.69
2017-11-30T07:44:29.282Z,4.58
2017-11-30T07:45:38.216Z,4.69
2017-11-30T07:46:47.028Z,4.71
2017-11-30T07:47:56.124Z,4.71
2017-11-30T07:49:04.660Z,4.75
2017-11-30T07:50:13.210Z,4.6
2017-11-30T07:51:21.743Z,4.69
2017-11-30T07:52:44.056Z,4.76
2017-11-30T07:53:54.831Z,4.78
2017-11-30T07:55:03.365Z,4.75
2017-11-30T07:56:12.403Z,4.74
2017-11-30T07:57:21.224Z,4.91
2017-11-30T07:58:29.765Z,4.87
2017-11-30T07:59:38.361Z,4.85
2017-11-30T08:00:46.898Z,4.78
2017-11-30T08:01:55.438Z,4.83
2017-11-30T08:03:03.974Z,4.83
2017-11-30T08:04:13.054Z,4.83
2017-11-30T08:05:22.132Z,4.83
2017-11-30T08:06:31.220Z,4.97
2017-11-30T08:07:39.757Z,4.91
2017-11-30T08:08:48.293Z,4.97
2017-11-30T08:09:57.396Z,5.02
2017-11-30T08:11:06.487Z,5.05
2017-11-30T08:12:15.027Z,5.02
2017-11-30T08:13:23.831Z,5.1
2017-11-30T08:14:32.646Z,5.03
2017-11-30T08:15:41.741Z,4.98
2017-11-30T08:16:50.291Z,4.98
2017-11-30T08:17:58.829Z,5.12
2017-11-30T08:19:07.903Z,5.18
2017-11-30T08:20:16.444Z,5.08
2017-11-30T08:21:26.236Z,5.18
2017-11-30T08:22:35.143Z,5.15
2017-11-30T08:23:43.685Z,5.21
2017-11-30T08:24:52.222Z,5.2
2017-11-30T08:26:00.813Z,5.2
2017-11-30T08:27:09.619Z,5.24
2017-11-30T08:28:18.197Z,5.3
2017-11-30T08:29:27.284Z,5.37
2017-11-30T08:30:36.096Z,5.36
2017-11-30T08:31:45.299Z,5.34
2017-11-30T08:32:53.842Z,5.34
2017-11-30T08:34:02.375Z,5.28
2017-11-30T08:35:11.194Z,5.37
2017-11-30T08:36:20.000Z,5.34
2017-11-30T08:37:29.654Z,5.33
2017-11-30T08:38:38.507Z,5.37
2017-11-30T08:39:47.120Z,5.39
2017-11-30T08:40:55.975Z,5.39
2017-11-30T08:42:04.517Z,5.37
2017-11-30T08:43:13.442Z,5.39
2017-11-30T08:44:22.849Z,5.46
2017-11-30T08:45:31.658Z,5.45
2017-11-30T08:46:40.740Z,5.42
2017-11-30T08:47:49.554Z,5.48
2017-11-30T08:48:58.091Z,5.51
2017-11-30T08:50:06.901Z,5.57
2017-11-30T08:51:15.437Z,5.51
2017-11-30T08:52:24.783Z,5.51
2017-11-30T08:53:33.588Z,5.62
2017-11-30T08:54:42.123Z,5.48
2017-11-30T08:55:50.665Z,5.54
2017-11-30T08:56:59.563Z,5.48
2017-11-30T08:58:08.646Z,5.6
2017-11-30T08:59:17.499Z,5.63
2017-11-30T09:00:26.149Z,5.64
2017-11-30T09:01:34.718Z,5.6
2017-11-30T09:02:43.252Z,5.59
2017-11-30T09:03:51.788Z,5.62
2017-11-30T09:05:00.875Z,5.63
2017-11-30T09:06:09.691Z,5.6
2017-11-30T09:07:18.498Z,5.46
2017-11-30T09:08:27.373Z,5.54
2017-11-30T09:09:36.183Z,5.63
2017-11-30T09:10:44.996Z,5.6
2017-11-30T09:11:54.090Z,5.55
2017-11-30T09:13:02.900Z,5.64
2017-11-30T09:14:11.733Z,5.6
2017-11-30T09:15:20.270Z,5.73
2017-11-30T09:16:29.079Z,5.69
2017-11-30T09:17:37.899Z,5.66
2017-11-30T09:18:46.708Z,5.67
2017-11-30T09:19:55.796Z,5.66
2017-11-30T09:21:04.336Z,5.66
2017-11-30T09:22:13.146Z,5.64
2017-11-30T09:23:24.330Z,5.75
2017-11-30T09:24:33.420Z,5.82
2017-11-30T09:25:42.228Z,5.84
2017-11-30T09:26:51.891Z,5.78
2017-11-30T09:28:00.704Z,5.81
2017-11-30T09:29:09.248Z,5.85
2017-11-30T09:30:18.088Z,5.88
2017-11-30T09:31:26.900Z,5.84
2017-11-30T09:32:35.988Z,5.84
2017-11-30T09:33:44.537Z,5.92
2017-11-30T09:34:53.657Z,5.95
2017-11-30T09:36:02.472Z,5.95
2017-11-30T09:37:11.280Z,5.99
2017-11-30T09:38:20.100Z,6.03
2017-11-30T09:39:28.908Z,6.09
2017-11-30T09:40:37.718Z,6.09
2017-11-30T09:41:47.071Z,6.18
2017-11-30T09:42:55.611Z,6.1
2017-11-30T09:44:04.696Z,6.21
2017-11-30T09:45:13.789Z,6.31
2017-11-30T09:46:22.329Z,6.34
2017-11-30T09:47:31.782Z,6.39
2017-11-30T09:48:40.590Z,6.39
2017-11-30T09:49:49.413Z,6.49
2017-11-30T09:50:58.346Z,6.57
2017-11-30T09:52:08.005Z,6.64
2017-11-30T09:53:18.508Z,6.58
2017-11-30T09:54:27.605Z,6.6
2017-11-30T09:55:36.138Z,6.57
2017-11-30T09:56:44.689Z,6.68
2017-11-30T09:57:53.231Z,6.65
2017-11-30T09:59:01.773Z,6.65
2017-11-30T10:00:10.325Z,6.82
2017-11-30T10:01:19.474Z,6.72
2017-11-30T10:02:28.024Z,6.75
2017-11-30T10:03:37.380Z,6.79
2017-11-30T10:04:46.188Z,6.75
2017-11-30T10:05:55.270Z,6.79
2017-11-30T10:07:04.344Z,6.78
2017-11-30T10:08:13.163Z,6.76
2017-11-30T10:09:21.816Z,6.76
2017-11-30T10:10:31.763Z,6.76
2017-11-30T10:11:40.571Z,6.75
2017-11-30T10:12:49.378Z,6.64
2017-11-30T10:13:58.255Z,6.65
2017-11-30T10:15:07.938Z,6.58
2017-11-30T10:16:16.778Z,6.6
2017-11-30T10:17:25.686Z,6.58
2017-11-30T10:18:35.036Z,6.58
2017-11-30T10:19:43.860Z,6.61
2017-11-30T10:20:52.398Z,6.65
2017-11-30T10:22:01.237Z,6.62
2017-11-30T10:23:10.335Z,6.58
2017-11-30T10:24:18.873Z,6.54
2017-11-30T10:25:27.957Z,6.6
2017-11-30T10:26:36.499Z,6.54
2017-11-30T10:27:45.303Z,6.47
2017-11-30T10:28:53.840Z,6.47
2017-11-30T10:30:02.650Z,6.6
2017-11-30T10:31:11.460Z,6.62
2017-11-30T10:32:20.270Z,6.58
2017-11-30T10:33:29.360Z,6.6
2017-11-30T10:34:37.907Z,6.54
2017-11-30T10:35:46.443Z,6.6
2017-11-30T10:36:55.285Z,6.6
2017-11-30T10:38:04.080Z,6.61
2017-11-30T10:39:12.615Z,6.61
2017-11-30T10:40:21.151Z,6.58
2017-11-30T10:41:29.959Z,6.62
2017-11-30T10:42:38.579Z,6.58
2017-11-30T10:43:47.743Z,6.58
2017-11-30T10:44:56.292Z,6.64
2017-11-30T10:46:04.830Z,6.6
2017-11-30T10:47:13.638Z,6.67
2017-11-30T10:48:22.230Z,6.64
2017-11-30T10:49:31.041Z,6.61
2017-11-30T10:50:39.583Z,6.6
2017-11-30T10:51:48.392Z,6.57
2017-11-30T10:52:57.497Z,6.55
2017-11-30T10:54:06.034Z,6.55
2017-11-30T10:55:14.844Z,6.64
2017-11-30T10:56:23.673Z,6.57
2017-11-30T10:57:32.487Z,6.54
2017-11-30T10:58:41.025Z,6.46
2017-11-30T10:59:49.832Z,6.39
2017-11-30T11:00:58.917Z,6.43
2017-11-30T11:02:07.732Z,6.42
2017-11-30T11:03:16.820Z,6.39
2017-11-30T11:04:25.356Z,6.43
2017-11-30T11:05:34.167Z,6.36
2017-11-30T11:06:42.708Z,6.43
2017-11-30T11:07:51.246Z,6.39
2017-11-30T11:09:00.057Z,6.44
2017-11-30T11:10:08.597Z,6.55
2017-11-30T11:11:17.684Z,6.57
2017-11-30T11:12:26.224Z,6.57
2017-11-30T11:13:35.036Z,6.52
2017-11-30T11:14:43.854Z,6.57
2017-11-30T11:15:52.937Z,6.6
2017-11-30T11:17:01.482Z,6.61
2017-11-30T11:18:10.574Z,6.54
2017-11-30T11:19:19.118Z,6.62
2017-11-30T11:20:27.659Z,6.6
2017-11-30T11:21:36.202Z,6.58
2017-11-30T11:22:45.290Z,6.72
2017-11-30T11:23:53.823Z,6.73
2017-11-30T11:25:02.373Z,6.78
2017-11-30T11:26:11.488Z,6.72
2017-11-30T11:27:20.295Z,6.8
2017-11-30T11:28:29.112Z,6.78
2017-11-30T11:29:37.650Z,6.83
2017-11-30T11:30:46.455Z,6.85
2017-11-30T11:31:55.543Z,6.93
2017-11-30T11:33:04.355Z,6.8
2017-11-30T11:34:13.165Z,6.88
2017-11-30T11:35:21.970Z,6.97
2017-11-30T11:36:30.511Z,7
2017-11-30T11:37:39.047Z,7.04
2017-11-30T11:38:47.857Z,7.05
2017-11-30T11:39:56.670Z,7.04
2017-11-30T11:41:05.771Z,7.01
2017-11-30T11:42:14.622Z,7.01
2017-11-30T11:43:23.696Z,7.03
2017-11-30T11:44:32.544Z,7.09
2017-11-30T11:45:41.093Z,7.13
2017-11-30T11:46:50.187Z,7.04
2017-11-30T11:47:59.007Z,6.98
2017-11-30T11:49:07.835Z,7.08
2017-11-30T11:50:17.200Z,7.03
2017-11-30T11:51:27.024Z,6.98
2017-11-30T11:52:35.997Z,7.01
2017-11-30T11:53:44.809Z,6.97
2017-11-30T11:54:53.623Z,7.03
2017-11-30T11:56:02.463Z,7.01
2017-11-30T11:57:11.561Z,6.94
2017-11-30T11:58:20.660Z,6.91
2017-11-30T11:59:29.475Z,7.03
2017-11-30T12:00:38.293Z,6.95
2017-11-30T12:01:47.383Z,6.98
2017-11-30T12:02:55.928Z,6.98
2017-11-30T12:04:05.013Z,7
2017-11-30T12:05:13.829Z,6.95
2017-11-30T12:06:22.913Z,7.01
2017-11-30T12:07:31.995Z,7.03
2017-11-30T12:08:40.810Z,7.01
2017-11-30T12:09:49.626Z,7.08
2017-11-30T12:10:58.430Z,7.08
2017-11-30T12:12:07.254Z,7.04
2017-11-30T12:13:16.058Z,7
2017-11-30T12:14:25.217Z,7.12
2017-11-30T12:15:33.758Z,7.12
2017-11-30T12:16:42.563Z,7.15
2017-11-30T12:17:51.643Z,7.13
2017-11-30T12:19:00.181Z,7.15
2017-11-30T12:20:09.270Z,7.11
2017-11-30T12:21:18.080Z,7.12
2017-11-30T12:22:26.885Z,7.13
2017-11-30T12:23:35.966Z,7.15
2017-11-30T12:24:44.501Z,7.09
2017-11-30T12:25:53.593Z,7.16
2017-11-30T12:27:02.131Z,7.12
2017-11-30T12:28:10.945Z,6.98
2017-11-30T12:29:19.915Z,7.03
2017-11-30T12:30:28.461Z,7.01
2017-11-30T12:31:37.548Z,7.01
2017-11-30T12:32:46.633Z,7
2017-11-30T12:33:55.176Z,6.98
2017-11-30T12:35:04.281Z,7
2017-11-30T12:36:13.371Z,7.04
2017-11-30T12:37:22.177Z,7
2017-11-30T12:38:31.260Z,6.94
2017-11-30T12:39:40.071Z,7.03
2017-11-30T12:40:48.610Z,6.98
2017-11-30T12:41:57.148Z,6.98
2017-11-30T12:43:06.244Z,7
2017-11-30T12:44:15.053Z,7.03
2017-11-30T12:45:23.592Z,6.95
2017-11-30T12:46:32.398Z,6.88
2017-11-30T12:47:41.209Z,6.94
2017-11-30T12:48:49.754Z,6.94
2017-11-30T12:49:58.845Z,6.93
2017-11-30T12:51:07.661Z,6.86
2017-11-30T12:52:16.479Z,6.79
2017-11-30T12:53:25.020Z,6.88
2017-11-30T12:54:33.833Z,6.85
2017-11-30T12:55:42.366Z,6.85
2017-11-30T12:56:51.488Z,6.85
2017-11-30T12:58:00.572Z,6.91
2017-11-30T12:59:09.643Z,6.79
2017-11-30T13:00:18.182Z,6.82
2017-11-30T13:01:27.029Z,6.86
2017-11-30T13:02:36.114Z,6.82
2017-11-30T13:03:44.919Z,6.75
2017-11-30T13:04:53.722Z,6.78
2017-11-30T13:06:03.060Z,6.78
2017-11-30T13:07:12.399Z,6.76
2017-11-30T13:08:20.934Z,6.72
2017-11-30T13:09:29.738Z,6.72
2017-11-30T13:10:38.276Z,6.75
2017-11-30T13:11:46.824Z,6.73
2017-11-30T13:12:55.633Z,6.73
2017-11-30T13:14:04.433Z,6.7
2017-11-30T13:15:13.237Z,6.78
2017-11-30T13:16:22.042Z,6.78
2017-11-30T13:17:31.382Z,6.73
2017-11-30T13:18:39.919Z,6.75
2017-11-30T13:19:48.453Z,6.76
2017-11-30T13:20:57.144Z,6.82
2017-11-30T13:22:05.681Z,6.72
2017-11-30T13:23:14.755Z,6.75
2017-11-30T13:24:23.564Z,6.75
2017-11-30T13:25:32.367Z,6.76
2017-11-30T13:26:41.169Z,6.79
2017-11-30T13:27:49.710Z,6.76
2017-11-30T13:28:58.514Z,6.85
2017-11-30T13:30:07.588Z,6.79
2017-11-30T13:31:16.394Z,6.79
2017-11-30T13:32:25.010Z,6.9
2017-11-30T13:33:34.817Z,6.82
2017-11-30T13:34:43.622Z,6.88
2017-11-30T13:35:52.431Z,6.9
2017-11-30T13:37:01.771Z,6.94
2017-11-30T13:38:10.575Z,6.83
2017-11-30T13:39:19.115Z,6.98
2017-11-30T13:40:28.194Z,7.01
2017-11-30T13:41:36.730Z,7.01
2017-11-30T13:42:45.799Z,7.04
2017-11-30T13:43:54.604Z,6.98
2017-11-30T13:45:03.142Z,7.01
2017-11-30T13:46:11.680Z,7.03
2017-11-30T13:47:20.489Z,7.13
2017-11-30T13:48:29.296Z,7.16
2017-11-30T13:49:38.098Z,7.16
2017-11-30T13:50:46.905Z,7.01
2017-11-30T13:51:55.975Z,7.01
2017-11-30T13:53:04.818Z,7.12
2017-11-30T13:54:13.677Z,6.97
2017-11-30T13:55:22.160Z,7.01
2017-11-30T13:56:30.966Z,7.05
2017-11-30T13:57:39.504Z,7.18
2017-11-30T13:58:48.581Z,7.01
2017-11-30T13:59:57.656Z,7.05
2017-11-30T14:01:06.197Z,7
2017-11-30T14:02:14.731Z,7.04
2017-11-30T14:03:23.803Z,7.04
2017-11-30T14:04:32.876Z,7.04
2017-11-30T14:05:41.685Z,7.03
2017-11-30T14:06:50.488Z,6.98
2017-11-30T14:07:59.030Z,6.95
2017-11-30T14:09:08.161Z,6.97
2017-11-30T14:10:16.654Z,6.98
2017-11-30T14:11:25.725Z,6.95
2017-11-30T14:12:34.533Z,6.98
2017-11-30T14:13:43.605Z,6.95
2017-11-30T14:14:52.143Z,6.86
2017-11-30T14:16:00.946Z,6.86
2017-11-30T14:17:10.025Z,6.93
2017-11-30T14:18:18.559Z,6.91
2017-11-30T14:19:27.365Z,6.91
2017-11-30T14:20:36.177Z,6.9
2017-11-30T14:21:44.979Z,6.9
2017-11-30T14:22:53.786Z,6.86
2017-11-30T14:24:02.595Z,6.86
2017-11-30T14:25:11.669Z,6.86
2017-11-30T14:26:20.472Z,6.9
2017-11-30T14:27:29.544Z,6.88
2017-11-30T14:28:38.086Z,6.91
2017-11-30T14:29:46.615Z,6.95
2017-11-30T14:30:55.425Z,6.83
2017-11-30T14:32:03.966Z,6.93
2017-11-30T14:33:13.041Z,6.85
2017-11-30T14:34:21.848Z,6.83
2017-11-30T14:35:30.927Z,6.91
2017-11-30T14:36:39.996Z,6.82
2017-11-30T14:37:48.539Z,6.82
2017-11-30T14:38:57.078Z,6.79
2017-11-30T14:40:06.154Z,6.8
2017-11-30T14:41:15.225Z,6.9
2017-11-30T14:42:24.317Z,6.83
2017-11-30T14:43:33.141Z,6.83
2017-11-30T14:44:41.679Z,6.82
2017-11-30T14:45:51.015Z,6.8
2017-11-30T14:46:59.555Z,6.82
2017-11-30T14:48:08.362Z,6.8
2017-11-30T14:49:17.198Z,6.85
2017-11-30T14:50:26.006Z,6.82
2017-11-30T14:51:34.821Z,6.86
2017-11-30T14:52:43.359Z,6.82
2017-11-30T14:53:52.164Z,6.8
2017-11-30T14:55:00.994Z,6.76
2017-11-30T14:56:09.528Z,6.83
2017-11-30T14:57:18.670Z,6.83
2017-11-30T14:58:27.475Z,6.73
2017-11-30T14:59:36.283Z,6.67
2017-11-30T15:00:44.919Z,6.76
2017-11-30T15:01:54.907Z,6.76
2017-11-30T15:03:04.738Z,6.72
2017-11-30T15:04:13.277Z,6.72
2017-11-30T15:05:22.137Z,6.73
2017-11-30T15:08:11.935Z,6.7
2017-11-30T15:09:20.781Z,6.75
2017-11-30T15:10:32.180Z,6.68
2017-11-30T15:11:41.172Z,6.57
2017-11-30T15:12:49.852Z,6.7
2017-11-30T15:13:58.715Z,6.64
2017-11-30T15:15:07.379Z,6.64
2017-11-30T15:16:16.664Z,6.61
2017-11-30T15:17:26.042Z,6.6
2017-11-30T15:18:34.952Z,6.54
2017-11-30T15:19:43.807Z,6.61
2017-11-30T15:20:52.663Z,6.61
2017-11-30T15:22:01.274Z,6.58